sensor_id;sensor_type;location;lat;lon;timestamp;temperature;humidity
12335;DHT22;6233;51.560;9.986;2022-10-16T00:02:06;15.10;99.90
12335;DHT22;6233;51.560;9.986;2022-10-16T00:05:08;15.20;99.90
12335;DHT22;6233;51.560;9.986;2022-10-16T00:08:13;15.10;99.90
12335;DHT22;6233;51.560;9.986;2022-10-16T00:11:21;15.00;99.90
12335;DHT22;6233;51.560;9.986;2022-10-16T00:14:23;15.00;99.90
12335;DHT22;6233;51.560;9.986;2022-10-16T00:17:24;15.00;99.90
12335;DHT22;6233;51.560;9.986;2022-10-16T00:20:26;15.10;99.90
12335;DHT22;6233;51.560;9.986;2022-10-16T00:23:27;15.10;99.90
12335;DHT22;6233;51.560;9.986;2022-10-16T00:26:31;15.10;99.90
12335;DHT22;6233;51.560;9.986;2022-10-16T00:29:33;15.10;99.90
12335;DHT22;6233;51.560;9.986;2022-10-16T00:32:34;15.10;99.90
12335;DHT22;6233;51.560;9.986;2022-10-16T00:35:36;15.10;99.90
12335;DHT22;6233;51.560;9.986;2022-10-16T00:38:38;15.10;99.90
12335;DHT22;6233;51.560;9.986;2022-10-16T00:41:39;15.20;99.90
12335;DHT22;6233;51.560;9.986;2022-10-16T00:44:56;15.10;99.90
12335;DHT22;6233;51.560;9.986;2022-10-16T00:47:58;15.00;99.90
12335;DHT22;6233;51.560;9.986;2022-10-16T00:51:00;15.10;99.90
12335;DHT22;6233;51.560;9.986;2022-10-16T00:54:10;15.10;99.90
12335;DHT22;6233;51.560;9.986;2022-10-16T00:57:13;15.30;99.90
12335;DHT22;6233;51.560;9.986;2022-10-16T01:00:24;15.30;99.90
12335;DHT22;6233;51.560;9.986;2022-10-16T01:03:36;15.00;99.90
12335;DHT22;6233;51.560;9.986;2022-10-16T01:13:25;15.00;99.90
12335;DHT22;6233;51.560;9.986;2022-10-16T01:16:34;15.10;99.90
12335;DHT22;6233;51.560;9.986;2022-10-16T01:30:11;15.00;99.90
12335;DHT22;6233;51.560;9.986;2022-10-16T01:33:20;15.10;99.90
12335;DHT22;6233;51.560;9.986;2022-10-16T01:36:27;15.00;99.90
12335;DHT22;6233;51.560;9.986;2022-10-16T01:39:32;15.10;99.90
12335;DHT22;6233;51.560;9.986;2022-10-16T01:42:57;15.10;99.90
12335;DHT22;6233;51.560;9.986;2022-10-16T01:46:01;15.00;99.90
12335;DHT22;6233;51.560;9.986;2022-10-16T01:49:04;15.10;99.90
12335;DHT22;6233;51.560;9.986;2022-10-16T01:52:10;15.10;99.90
12335;DHT22;6233;51.560;9.986;2022-10-16T01:55:16;15.00;99.90
12335;DHT22;6233;51.560;9.986;2022-10-16T01:58:19;15.00;99.90
12335;DHT22;6233;51.560;9.986;2022-10-16T02:01:23;14.90;99.90
12335;DHT22;6233;51.560;9.986;2022-10-16T02:04:38;15.20;99.90
12335;DHT22;6233;51.560;9.986;2022-10-16T02:07:43;14.90;99.90
12335;DHT22;6233;51.560;9.986;2022-10-16T02:10:45;14.90;99.90
12335;DHT22;6233;51.560;9.986;2022-10-16T02:13:51;15.20;99.90
12335;DHT22;6233;51.560;9.986;2022-10-16T02:16:54;14.90;99.90
12335;DHT22;6233;51.560;9.986;2022-10-16T02:19:57;14.90;99.90
12335;DHT22;6233;51.560;9.986;2022-10-16T02:23:01;15.10;99.90
12335;DHT22;6233;51.560;9.986;2022-10-16T02:26:07;14.90;99.90
12335;DHT22;6233;51.560;9.986;2022-10-16T02:29:12;14.90;99.90
12335;DHT22;6233;51.560;9.986;2022-10-16T02:32:22;15.30;99.90
12335;DHT22;6233;51.560;9.986;2022-10-16T02:35:27;14.80;99.90
12335;DHT22;6233;51.560;9.986;2022-10-16T02:38:30;14.90;99.90
12335;DHT22;6233;51.560;9.986;2022-10-16T02:41:32;14.80;99.90
12335;DHT22;6233;51.560;9.986;2022-10-16T02:44:34;14.90;99.90
12335;DHT22;6233;51.560;9.986;2022-10-16T02:47:36;14.80;99.90
12335;DHT22;6233;51.560;9.986;2022-10-16T02:50:37;14.80;99.90
12335;DHT22;6233;51.560;9.986;2022-10-16T02:53:39;15.00;99.90
12335;DHT22;6233;51.560;9.986;2022-10-16T02:56:40;14.70;99.90
12335;DHT22;6233;51.560;9.986;2022-10-16T02:59:42;14.80;99.90
12335;DHT22;6233;51.560;9.986;2022-10-16T03:02:44;14.90;99.90
12335;DHT22;6233;51.560;9.986;2022-10-16T03:05:45;15.20;99.90
12335;DHT22;6233;51.560;9.986;2022-10-16T03:08:47;14.80;99.90
12335;DHT22;6233;51.560;9.986;2022-10-16T03:11:49;14.70;99.90
12335;DHT22;6233;51.560;9.986;2022-10-16T03:14:50;14.70;99.90
12335;DHT22;6233;51.560;9.986;2022-10-16T03:17:52;14.80;99.90
12335;DHT22;6233;51.560;9.986;2022-10-16T03:20:54;15.10;99.90
12335;DHT22;6233;51.560;9.986;2022-10-16T03:23:55;14.80;99.90
12335;DHT22;6233;51.560;9.986;2022-10-16T03:26:57;14.80;99.90
12335;DHT22;6233;51.560;9.986;2022-10-16T03:29:59;15.30;99.90
12335;DHT22;6233;51.560;9.986;2022-10-16T03:33:00;14.90;99.90
12335;DHT22;6233;51.560;9.986;2022-10-16T03:36:02;14.70;99.90
12335;DHT22;6233;51.560;9.986;2022-10-16T03:39:04;14.70;99.90
12335;DHT22;6233;51.560;9.986;2022-10-16T03:42:05;14.80;99.90
12335;DHT22;6233;51.560;9.986;2022-10-16T03:45:07;15.10;99.90
12335;DHT22;6233;51.560;9.986;2022-10-16T03:48:09;14.60;99.90
12335;DHT22;6233;51.560;9.986;2022-10-16T03:51:10;14.80;99.90
12335;DHT22;6233;51.560;9.986;2022-10-16T03:54:12;14.60;99.90
12335;DHT22;6233;51.560;9.986;2022-10-16T03:57:14;14.70;99.90
12335;DHT22;6233;51.560;9.986;2022-10-16T04:00:15;14.60;99.90
12335;DHT22;6233;51.560;9.986;2022-10-16T04:03:17;14.50;99.90
12335;DHT22;6233;51.560;9.986;2022-10-16T04:06:20;14.70;99.90
12335;DHT22;6233;51.560;9.986;2022-10-16T04:09:22;14.60;99.90
12335;DHT22;6233;51.560;9.986;2022-10-16T04:12:23;14.60;99.90
12335;DHT22;6233;51.560;9.986;2022-10-16T04:15:25;14.50;99.90
12335;DHT22;6233;51.560;9.986;2022-10-16T04:18:27;14.40;99.90
12335;DHT22;6233;51.560;9.986;2022-10-16T04:21:29;14.70;99.90
12335;DHT22;6233;51.560;9.986;2022-10-16T04:24:30;14.70;99.90
12335;DHT22;6233;51.560;9.986;2022-10-16T04:27:32;14.40;99.90
12335;DHT22;6233;51.560;9.986;2022-10-16T04:30:33;14.50;99.90
12335;DHT22;6233;51.560;9.986;2022-10-16T04:33:35;14.70;99.90
12335;DHT22;6233;51.560;9.986;2022-10-16T04:36:40;14.70;99.90
12335;DHT22;6233;51.560;9.986;2022-10-16T04:39:41;14.30;99.90
12335;DHT22;6233;51.560;9.986;2022-10-16T04:42:43;14.70;99.90
12335;DHT22;6233;51.560;9.986;2022-10-16T04:45:47;14.40;99.90
12335;DHT22;6233;51.560;9.986;2022-10-16T04:48:49;14.30;99.90
12335;DHT22;6233;51.560;9.986;2022-10-16T04:51:50;14.20;99.90
12335;DHT22;6233;51.560;9.986;2022-10-16T04:54:52;14.20;99.90
12335;DHT22;6233;51.560;9.986;2022-10-16T04:57:53;14.10;99.90
12335;DHT22;6233;51.560;9.986;2022-10-16T05:00:55;14.00;99.90
12335;DHT22;6233;51.560;9.986;2022-10-16T05:03:57;14.10;99.90
12335;DHT22;6233;51.560;9.986;2022-10-16T05:06:58;14.10;99.90
12335;DHT22;6233;51.560;9.986;2022-10-16T05:10:00;14.00;99.90
12335;DHT22;6233;51.560;9.986;2022-10-16T05:13:02;14.10;99.90
12335;DHT22;6233;51.560;9.986;2022-10-16T05:16:06;14.10;99.90
12335;DHT22;6233;51.560;9.986;2022-10-16T05:19:08;14.00;99.90
12335;DHT22;6233;51.560;9.986;2022-10-16T05:22:29;14.10;99.90
12335;DHT22;6233;51.560;9.986;2022-10-16T05:25:31;14.10;99.90
12335;DHT22;6233;51.560;9.986;2022-10-16T05:28:33;14.20;99.90
12335;DHT22;6233;51.560;9.986;2022-10-16T05:31:34;14.10;99.90
12335;DHT22;6233;51.560;9.986;2022-10-16T05:34:36;14.40;99.90
12335;DHT22;6233;51.560;9.986;2022-10-16T05:37:38;13.90;99.90
12335;DHT22;6233;51.560;9.986;2022-10-16T05:40:40;13.90;99.90
12335;DHT22;6233;51.560;9.986;2022-10-16T05:43:41;13.90;99.90
12335;DHT22;6233;51.560;9.986;2022-10-16T05:46:43;14.00;99.90
12335;DHT22;6233;51.560;9.986;2022-10-16T05:49:44;14.20;99.90
12335;DHT22;6233;51.560;9.986;2022-10-16T05:52:46;14.00;99.90
12335;DHT22;6233;51.560;9.986;2022-10-16T05:55:52;14.10;99.90
12335;DHT22;6233;51.560;9.986;2022-10-16T05:58:54;14.40;99.90
12335;DHT22;6233;51.560;9.986;2022-10-16T06:01:55;14.00;99.90
12335;DHT22;6233;51.560;9.986;2022-10-16T06:04:57;14.00;99.90
12335;DHT22;6233;51.560;9.986;2022-10-16T06:07:59;14.30;99.90
12335;DHT22;6233;51.560;9.986;2022-10-16T06:11:09;14.40;99.90
12335;DHT22;6233;51.560;9.986;2022-10-16T06:14:11;14.40;99.90
12335;DHT22;6233;51.560;9.986;2022-10-16T06:17:15;14.10;99.90
12335;DHT22;6233;51.560;9.986;2022-10-16T06:20:17;14.50;99.90
12335;DHT22;6233;51.560;9.986;2022-10-16T06:23:19;14.00;99.90
12335;DHT22;6233;51.560;9.986;2022-10-16T06:26:22;14.10;99.90
12335;DHT22;6233;51.560;9.986;2022-10-16T06:29:24;14.20;99.90
12335;DHT22;6233;51.560;9.986;2022-10-16T06:32:27;14.30;99.90
12335;DHT22;6233;51.560;9.986;2022-10-16T06:35:29;14.30;99.90
12335;DHT22;6233;51.560;9.986;2022-10-16T06:38:31;14.30;99.90
12335;DHT22;6233;51.560;9.986;2022-10-16T06:41:33;14.30;99.90
12335;DHT22;6233;51.560;9.986;2022-10-16T06:44:35;14.40;99.90
12335;DHT22;6233;51.560;9.986;2022-10-16T06:47:39;14.40;99.90
12335;DHT22;6233;51.560;9.986;2022-10-16T06:50:41;14.50;99.90
12335;DHT22;6233;51.560;9.986;2022-10-16T06:53:45;14.40;99.90
12335;DHT22;6233;51.560;9.986;2022-10-16T06:57:03;14.50;99.90
12335;DHT22;6233;51.560;9.986;2022-10-16T07:00:07;14.50;99.90
12335;DHT22;6233;51.560;9.986;2022-10-16T07:03:09;14.40;99.90
12335;DHT22;6233;51.560;9.986;2022-10-16T07:06:13;14.40;99.90
12335;DHT22;6233;51.560;9.986;2022-10-16T07:09:18;14.60;99.90
12335;DHT22;6233;51.560;9.986;2022-10-16T07:12:19;15.00;99.90
12335;DHT22;6233;51.560;9.986;2022-10-16T07:15:21;15.10;99.90
12335;DHT22;6233;51.560;9.986;2022-10-16T07:18:23;14.50;99.90
12335;DHT22;6233;51.560;9.986;2022-10-16T07:21:30;14.90;99.90
12335;DHT22;6233;51.560;9.986;2022-10-16T07:24:31;14.60;99.90
12335;DHT22;6233;51.560;9.986;2022-10-16T07:27:33;14.60;99.90
12335;DHT22;6233;51.560;9.986;2022-10-16T07:30:36;15.10;99.90
12335;DHT22;6233;51.560;9.986;2022-10-16T07:33:39;15.00;99.90
12335;DHT22;6233;51.560;9.986;2022-10-16T07:36:43;14.70;99.90
12335;DHT22;6233;51.560;9.986;2022-10-16T07:39:44;14.80;99.90
12335;DHT22;6233;51.560;9.986;2022-10-16T07:42:46;14.70;99.90
12335;DHT22;6233;51.560;9.986;2022-10-16T07:45:58;14.90;99.90
12335;DHT22;6233;51.560;9.986;2022-10-16T07:49:04;14.80;99.90
12335;DHT22;6233;51.560;9.986;2022-10-16T07:52:06;15.00;99.90
12335;DHT22;6233;51.560;9.986;2022-10-16T07:55:08;15.00;99.90
12335;DHT22;6233;51.560;9.986;2022-10-16T07:58:10;15.00;99.90
12335;DHT22;6233;51.560;9.986;2022-10-16T08:01:13;15.40;99.90
12335;DHT22;6233;51.560;9.986;2022-10-16T08:04:15;15.10;99.90
12335;DHT22;6233;51.560;9.986;2022-10-16T08:07:17;15.30;99.90
12335;DHT22;6233;51.560;9.986;2022-10-16T08:10:20;15.40;99.90
12335;DHT22;6233;51.560;9.986;2022-10-16T08:13:30;15.50;99.90
12335;DHT22;6233;51.560;9.986;2022-10-16T08:16:32;15.80;99.90
12335;DHT22;6233;51.560;9.986;2022-10-16T08:19:33;15.90;99.90
12335;DHT22;6233;51.560;9.986;2022-10-16T08:22:36;16.20;99.90
12335;DHT22;6233;51.560;9.986;2022-10-16T08:25:38;16.60;99.90
12335;DHT22;6233;51.560;9.986;2022-10-16T08:28:39;16.70;99.90
12335;DHT22;6233;51.560;9.986;2022-10-16T08:31:41;17.20;99.90
12335;DHT22;6233;51.560;9.986;2022-10-16T08:34:43;17.30;99.90
12335;DHT22;6233;51.560;9.986;2022-10-16T08:37:44;17.00;99.90
12335;DHT22;6233;51.560;9.986;2022-10-16T08:40:46;16.90;99.90
12335;DHT22;6233;51.560;9.986;2022-10-16T08:47:26;16.80;99.90
12335;DHT22;6233;51.560;9.986;2022-10-16T08:50:36;16.80;99.90
12335;DHT22;6233;51.560;9.986;2022-10-16T08:53:46;16.80;99.90
12335;DHT22;6233;51.560;9.986;2022-10-16T08:56:50;16.60;99.90
12335;DHT22;6233;51.560;9.986;2022-10-16T08:59:52;16.60;99.90
12335;DHT22;6233;51.560;9.986;2022-10-16T09:10:06;16.60;99.90
12335;DHT22;6233;51.560;9.986;2022-10-16T09:13:22;16.60;99.90
12335;DHT22;6233;51.560;9.986;2022-10-16T09:16:33;16.70;99.90
12335;DHT22;6233;51.560;9.986;2022-10-16T09:19:44;16.70;99.90
12335;DHT22;6233;51.560;9.986;2022-10-16T09:22:47;16.50;99.90
12335;DHT22;6233;51.560;9.986;2022-10-16T09:25:50;16.50;99.90
12335;DHT22;6233;51.560;9.986;2022-10-16T09:28:52;16.80;99.90
12335;DHT22;6233;51.560;9.986;2022-10-16T09:31:57;16.40;99.90
12335;DHT22;6233;51.560;9.986;2022-10-16T09:35:20;16.50;99.90
12335;DHT22;6233;51.560;9.986;2022-10-16T09:38:24;17.00;99.90
12335;DHT22;6233;51.560;9.986;2022-10-16T09:41:26;17.00;99.90
12335;DHT22;6233;51.560;9.986;2022-10-16T09:44:30;17.20;99.90
12335;DHT22;6233;51.560;9.986;2022-10-16T09:47:43;17.00;99.90
12335;DHT22;6233;51.560;9.986;2022-10-16T09:50:58;16.90;99.90
12335;DHT22;6233;51.560;9.986;2022-10-16T09:54:14;16.70;99.90
12335;DHT22;6233;51.560;9.986;2022-10-16T09:57:21;16.60;99.90
12335;DHT22;6233;51.560;9.986;2022-10-16T10:00:24;16.70;99.90
12335;DHT22;6233;51.560;9.986;2022-10-16T10:03:41;16.90;99.90
12335;DHT22;6233;51.560;9.986;2022-10-16T10:06:48;16.80;99.90
12335;DHT22;6233;51.560;9.986;2022-10-16T10:09:50;17.00;99.90
12335;DHT22;6233;51.560;9.986;2022-10-16T10:12:52;17.10;99.90
12335;DHT22;6233;51.560;9.986;2022-10-16T10:15:54;17.00;99.90
12335;DHT22;6233;51.560;9.986;2022-10-16T10:19:00;16.80;99.90
12335;DHT22;6233;51.560;9.986;2022-10-16T10:22:40;17.00;99.90
12335;DHT22;6233;51.560;9.986;2022-10-16T10:26:12;17.00;99.90
12335;DHT22;6233;51.560;9.986;2022-10-16T10:33:28;17.00;99.90
12335;DHT22;6233;51.560;9.986;2022-10-16T10:36:34;17.00;99.90
12335;DHT22;6233;51.560;9.986;2022-10-16T10:39:44;17.00;99.90
12335;DHT22;6233;51.560;9.986;2022-10-16T10:43:23;17.10;99.90
12335;DHT22;6233;51.560;9.986;2022-10-16T11:00:05;17.60;99.90
12335;DHT22;6233;51.560;9.986;2022-10-16T11:03:35;17.60;99.90
12335;DHT22;6233;51.560;9.986;2022-10-16T11:06:50;17.60;99.90
12335;DHT22;6233;51.560;9.986;2022-10-16T11:10:40;17.60;99.90
12335;DHT22;6233;51.560;9.986;2022-10-16T11:13:42;17.70;99.90
12335;DHT22;6233;51.560;9.986;2022-10-16T11:17:10;17.70;99.90
12335;DHT22;6233;51.560;9.986;2022-10-16T11:26:27;17.80;99.90
12335;DHT22;6233;51.560;9.986;2022-10-16T11:29:31;17.80;99.90
12335;DHT22;6233;51.560;9.986;2022-10-16T11:33:03;17.70;99.90
12335;DHT22;6233;51.560;9.986;2022-10-16T11:36:33;17.80;99.90
12335;DHT22;6233;51.560;9.986;2022-10-16T11:39:38;17.70;99.90
12335;DHT22;6233;51.560;9.986;2022-10-16T11:42:46;17.80;99.90
12335;DHT22;6233;51.560;9.986;2022-10-16T11:45:54;17.80;99.90
12335;DHT22;6233;51.560;9.986;2022-10-16T11:49:02;17.90;99.90
12335;DHT22;6233;51.560;9.986;2022-10-16T11:52:23;18.00;99.90
12335;DHT22;6233;51.560;9.986;2022-10-16T11:55:37;17.90;99.90
12335;DHT22;6233;51.560;9.986;2022-10-16T12:09:03;17.80;99.90
12335;DHT22;6233;51.560;9.986;2022-10-16T12:12:26;17.80;99.90
12335;DHT22;6233;51.560;9.986;2022-10-16T12:15:34;17.90;99.90
12335;DHT22;6233;51.560;9.986;2022-10-16T12:19:14;18.00;99.90
12335;DHT22;6233;51.560;9.986;2022-10-16T12:22:18;18.10;99.90
12335;DHT22;6233;51.560;9.986;2022-10-16T12:25:33;18.10;99.90
12335;DHT22;6233;51.560;9.986;2022-10-16T12:28:35;18.10;99.90
12335;DHT22;6233;51.560;9.986;2022-10-16T12:31:45;18.10;99.90
12335;DHT22;6233;51.560;9.986;2022-10-16T12:35:00;18.20;99.90
12335;DHT22;6233;51.560;9.986;2022-10-16T12:38:08;18.20;99.90
12335;DHT22;6233;51.560;9.986;2022-10-16T12:41:28;18.10;99.90
12335;DHT22;6233;51.560;9.986;2022-10-16T12:44:34;18.10;99.90
12335;DHT22;6233;51.560;9.986;2022-10-16T12:47:46;18.10;99.90
12335;DHT22;6233;51.560;9.986;2022-10-16T12:50:48;18.20;99.90
12335;DHT22;6233;51.560;9.986;2022-10-16T12:57:50;18.20;99.90
12335;DHT22;6233;51.560;9.986;2022-10-16T13:00:57;18.20;99.90
12335;DHT22;6233;51.560;9.986;2022-10-16T13:10:36;18.30;99.90
12335;DHT22;6233;51.560;9.986;2022-10-16T13:17:11;18.30;99.90
12335;DHT22;6233;51.560;9.986;2022-10-16T13:20:29;18.40;99.90
12335;DHT22;6233;51.560;9.986;2022-10-16T13:23:48;18.20;99.90
12335;DHT22;6233;51.560;9.986;2022-10-16T13:27:07;18.20;99.90
12335;DHT22;6233;51.560;9.986;2022-10-16T13:30:23;18.00;99.90
12335;DHT22;6233;51.560;9.986;2022-10-16T13:33:42;18.00;99.90
12335;DHT22;6233;51.560;9.986;2022-10-16T13:36:49;18.10;99.90
12335;DHT22;6233;51.560;9.986;2022-10-16T13:40:06;18.00;99.90
12335;DHT22;6233;51.560;9.986;2022-10-16T13:43:13;18.10;99.90
12335;DHT22;6233;51.560;9.986;2022-10-16T13:46:17;18.20;99.90
12335;DHT22;6233;51.560;9.986;2022-10-16T13:49:18;18.10;99.90
12335;DHT22;6233;51.560;9.986;2022-10-16T13:52:21;18.10;99.90
12335;DHT22;6233;51.560;9.986;2022-10-16T13:55:23;18.10;99.90
12335;DHT22;6233;51.560;9.986;2022-10-16T13:58:25;18.10;99.90
12335;DHT22;6233;51.560;9.986;2022-10-16T14:01:42;18.00;99.90
12335;DHT22;6233;51.560;9.986;2022-10-16T14:04:45;17.90;99.90
12335;DHT22;6233;51.560;9.986;2022-10-16T14:07:50;17.90;99.90
12335;DHT22;6233;51.560;9.986;2022-10-16T14:10:58;17.90;99.90
12335;DHT22;6233;51.560;9.986;2022-10-16T14:14:02;17.80;99.90
12335;DHT22;6233;51.560;9.986;2022-10-16T14:17:13;17.90;99.90
12335;DHT22;6233;51.560;9.986;2022-10-16T14:20:15;17.80;99.90
12335;DHT22;6233;51.560;9.986;2022-10-16T14:23:23;17.80;99.90
12335;DHT22;6233;51.560;9.986;2022-10-16T14:26:29;17.80;99.90
12335;DHT22;6233;51.560;9.986;2022-10-16T14:29:41;17.80;99.90
12335;DHT22;6233;51.560;9.986;2022-10-16T14:33:00;18.00;99.90
12335;DHT22;6233;51.560;9.986;2022-10-16T14:36:13;17.90;99.90
12335;DHT22;6233;51.560;9.986;2022-10-16T14:39:20;17.90;99.90
12335;DHT22;6233;51.560;9.986;2022-10-16T14:42:24;18.00;99.90
12335;DHT22;6233;51.560;9.986;2022-10-16T14:45:29;17.90;99.90
12335;DHT22;6233;51.560;9.986;2022-10-16T14:48:31;17.90;99.90
12335;DHT22;6233;51.560;9.986;2022-10-16T14:51:33;18.00;99.90
12335;DHT22;6233;51.560;9.986;2022-10-16T14:54:34;18.00;99.90
12335;DHT22;6233;51.560;9.986;2022-10-16T14:57:37;18.00;99.90
12335;DHT22;6233;51.560;9.986;2022-10-16T15:00:40;18.00;99.90
12335;DHT22;6233;51.560;9.986;2022-10-16T15:03:41;18.00;99.90
12335;DHT22;6233;51.560;9.986;2022-10-16T15:06:43;18.00;99.90
12335;DHT22;6233;51.560;9.986;2022-10-16T15:09:45;18.00;99.90
12335;DHT22;6233;51.560;9.986;2022-10-16T15:12:50;18.00;99.90
12335;DHT22;6233;51.560;9.986;2022-10-16T15:15:53;17.90;99.90
12335;DHT22;6233;51.560;9.986;2022-10-16T15:18:54;18.00;99.90
12335;DHT22;6233;51.560;9.986;2022-10-16T15:21:56;17.90;99.90
12335;DHT22;6233;51.560;9.986;2022-10-16T15:24:58;17.90;99.90
12335;DHT22;6233;51.560;9.986;2022-10-16T15:28:00;17.90;99.90
12335;DHT22;6233;51.560;9.986;2022-10-16T15:31:04;17.90;99.90
12335;DHT22;6233;51.560;9.986;2022-10-16T15:34:08;17.80;99.90
12335;DHT22;6233;51.560;9.986;2022-10-16T15:37:09;17.90;99.90
12335;DHT22;6233;51.560;9.986;2022-10-16T15:40:14;17.60;99.90
12335;DHT22;6233;51.560;9.986;2022-10-16T15:43:15;17.90;99.90
12335;DHT22;6233;51.560;9.986;2022-10-16T15:46:22;17.80;99.90
12335;DHT22;6233;51.560;9.986;2022-10-16T15:49:24;17.70;99.90
12335;DHT22;6233;51.560;9.986;2022-10-16T15:52:40;17.70;99.90
12335;DHT22;6233;51.560;9.986;2022-10-16T15:55:42;17.70;99.90
12335;DHT22;6233;51.560;9.986;2022-10-16T15:58:44;17.80;99.90
12335;DHT22;6233;51.560;9.986;2022-10-16T16:01:45;17.70;99.90
12335;DHT22;6233;51.560;9.986;2022-10-16T16:04:47;17.70;99.90
12335;DHT22;6233;51.560;9.986;2022-10-16T16:07:49;17.60;99.90
12335;DHT22;6233;51.560;9.986;2022-10-16T16:11:07;17.50;99.90
12335;DHT22;6233;51.560;9.986;2022-10-16T16:14:13;17.40;99.90
12335;DHT22;6233;51.560;9.986;2022-10-16T16:17:15;17.40;99.90
12335;DHT22;6233;51.560;9.986;2022-10-16T16:20:17;17.60;99.90
12335;DHT22;6233;51.560;9.986;2022-10-16T16:23:19;17.40;99.90
12335;DHT22;6233;51.560;9.986;2022-10-16T16:29:28;17.40;99.90
12335;DHT22;6233;51.560;9.986;2022-10-16T16:32:30;17.40;99.90
12335;DHT22;6233;51.560;9.986;2022-10-16T16:35:32;17.40;99.90
12335;DHT22;6233;51.560;9.986;2022-10-16T16:38:34;17.40;99.90
12335;DHT22;6233;51.560;9.986;2022-10-16T16:41:39;17.30;99.90
12335;DHT22;6233;51.560;9.986;2022-10-16T16:44:40;17.30;99.90
12335;DHT22;6233;51.560;9.986;2022-10-16T16:47:42;17.20;99.90
12335;DHT22;6233;51.560;9.986;2022-10-16T16:50:44;17.20;99.90
12335;DHT22;6233;51.560;9.986;2022-10-16T16:53:48;17.00;99.90
12335;DHT22;6233;51.560;9.986;2022-10-16T16:56:49;17.00;99.90
12335;DHT22;6233;51.560;9.986;2022-10-16T16:59:51;17.00;99.90
12335;DHT22;6233;51.560;9.986;2022-10-16T17:02:53;17.00;99.90
12335;DHT22;6233;51.560;9.986;2022-10-16T17:05:59;16.80;99.90
12335;DHT22;6233;51.560;9.986;2022-10-16T17:09:02;16.80;99.90
12335;DHT22;6233;51.560;9.986;2022-10-16T17:12:04;16.80;99.90
12335;DHT22;6233;51.560;9.986;2022-10-16T17:15:06;16.70;99.90
12335;DHT22;6233;51.560;9.986;2022-10-16T17:18:08;16.80;99.90
12335;DHT22;6233;51.560;9.986;2022-10-16T17:21:10;16.70;99.90
12335;DHT22;6233;51.560;9.986;2022-10-16T17:24:11;16.90;99.90
12335;DHT22;6233;51.560;9.986;2022-10-16T17:27:13;16.70;99.90
12335;DHT22;6233;51.560;9.986;2022-10-16T17:30:15;16.60;99.90
12335;DHT22;6233;51.560;9.986;2022-10-16T17:33:17;16.40;99.90
12335;DHT22;6233;51.560;9.986;2022-10-16T17:36:20;16.40;99.90
12335;DHT22;6233;51.560;9.986;2022-10-16T17:39:22;16.50;99.90
12335;DHT22;6233;51.560;9.986;2022-10-16T17:42:24;16.30;99.90
12335;DHT22;6233;51.560;9.986;2022-10-16T17:45:26;16.30;99.90
12335;DHT22;6233;51.560;9.986;2022-10-16T17:48:27;16.30;99.90
12335;DHT22;6233;51.560;9.986;2022-10-16T17:51:30;16.40;99.90
12335;DHT22;6233;51.560;9.986;2022-10-16T17:54:33;16.20;99.90
12335;DHT22;6233;51.560;9.986;2022-10-16T17:57:34;16.20;99.90
12335;DHT22;6233;51.560;9.986;2022-10-16T18:00:36;16.20;99.90
12335;DHT22;6233;51.560;9.986;2022-10-16T18:03:38;16.20;99.90
12335;DHT22;6233;51.560;9.986;2022-10-16T18:06:41;16.20;99.90
12335;DHT22;6233;51.560;9.986;2022-10-16T18:09:44;16.20;99.90
12335;DHT22;6233;51.560;9.986;2022-10-16T18:13:06;16.10;99.90
12335;DHT22;6233;51.560;9.986;2022-10-16T18:16:14;16.10;99.90
12335;DHT22;6233;51.560;9.986;2022-10-16T18:19:16;16.00;99.90
12335;DHT22;6233;51.560;9.986;2022-10-16T18:22:17;16.10;99.90
12335;DHT22;6233;51.560;9.986;2022-10-16T18:25:19;16.10;99.90
12335;DHT22;6233;51.560;9.986;2022-10-16T18:28:21;16.20;99.90
12335;DHT22;6233;51.560;9.986;2022-10-16T18:31:24;16.10;99.90
12335;DHT22;6233;51.560;9.986;2022-10-16T18:34:26;16.10;99.90
12335;DHT22;6233;51.560;9.986;2022-10-16T18:37:28;16.10;99.90
12335;DHT22;6233;51.560;9.986;2022-10-16T18:40:30;16.10;99.90
12335;DHT22;6233;51.560;9.986;2022-10-16T18:43:33;16.10;99.90
12335;DHT22;6233;51.560;9.986;2022-10-16T18:46:36;16.10;99.90
12335;DHT22;6233;51.560;9.986;2022-10-16T18:49:38;16.10;99.90
12335;DHT22;6233;51.560;9.986;2022-10-16T18:52:46;16.10;99.90
12335;DHT22;6233;51.560;9.986;2022-10-16T18:55:52;16.10;99.90
12335;DHT22;6233;51.560;9.986;2022-10-16T18:58:53;16.10;99.90
12335;DHT22;6233;51.560;9.986;2022-10-16T19:01:58;16.10;99.90
12335;DHT22;6233;51.560;9.986;2022-10-16T19:04:59;16.10;99.90
12335;DHT22;6233;51.560;9.986;2022-10-16T19:08:06;16.10;99.90
12335;DHT22;6233;51.560;9.986;2022-10-16T19:11:11;16.20;99.90
12335;DHT22;6233;51.560;9.986;2022-10-16T19:14:14;16.10;99.90
12335;DHT22;6233;51.560;9.986;2022-10-16T19:17:16;16.00;99.90
12335;DHT22;6233;51.560;9.986;2022-10-16T19:20:17;16.10;99.90
12335;DHT22;6233;51.560;9.986;2022-10-16T19:23:20;16.20;99.90
12335;DHT22;6233;51.560;9.986;2022-10-16T19:26:22;16.10;99.90
12335;DHT22;6233;51.560;9.986;2022-10-16T19:29:24;16.20;99.90
12335;DHT22;6233;51.560;9.986;2022-10-16T19:32:26;16.10;99.90
12335;DHT22;6233;51.560;9.986;2022-10-16T19:35:28;16.40;99.90
12335;DHT22;6233;51.560;9.986;2022-10-16T19:38:30;16.20;99.90
12335;DHT22;6233;51.560;9.986;2022-10-16T19:41:32;16.20;99.90
12335;DHT22;6233;51.560;9.986;2022-10-16T19:44:34;16.20;99.90
12335;DHT22;6233;51.560;9.986;2022-10-16T19:47:36;16.20;99.90
12335;DHT22;6233;51.560;9.986;2022-10-16T19:50:44;16.20;99.90
12335;DHT22;6233;51.560;9.986;2022-10-16T19:54:04;16.20;99.90
12335;DHT22;6233;51.560;9.986;2022-10-16T19:57:06;16.20;99.90
12335;DHT22;6233;51.560;9.986;2022-10-16T20:00:08;16.30;99.90
12335;DHT22;6233;51.560;9.986;2022-10-16T20:03:10;16.20;99.90
12335;DHT22;6233;51.560;9.986;2022-10-16T20:06:12;16.20;99.90
12335;DHT22;6233;51.560;9.986;2022-10-16T20:09:17;16.10;99.90
12335;DHT22;6233;51.560;9.986;2022-10-16T20:12:18;16.10;99.90
12335;DHT22;6233;51.560;9.986;2022-10-16T20:15:20;16.20;99.90
12335;DHT22;6233;51.560;9.986;2022-10-16T20:18:22;16.20;99.90
12335;DHT22;6233;51.560;9.986;2022-10-16T20:21:28;16.30;99.90
12335;DHT22;6233;51.560;9.986;2022-10-16T20:24:30;16.10;99.90
12335;DHT22;6233;51.560;9.986;2022-10-16T20:27:32;16.20;99.90
12335;DHT22;6233;51.560;9.986;2022-10-16T20:30:38;16.30;99.90
12335;DHT22;6233;51.560;9.986;2022-10-16T20:33:40;16.20;99.90
12335;DHT22;6233;51.560;9.986;2022-10-16T20:36:42;16.30;99.90
12335;DHT22;6233;51.560;9.986;2022-10-16T20:39:46;16.20;99.90
12335;DHT22;6233;51.560;9.986;2022-10-16T20:42:49;16.30;99.90
12335;DHT22;6233;51.560;9.986;2022-10-16T20:46:02;16.30;99.90
12335;DHT22;6233;51.560;9.986;2022-10-16T20:49:04;16.20;99.90
12335;DHT22;6233;51.560;9.986;2022-10-16T20:52:11;16.20;99.90
12335;DHT22;6233;51.560;9.986;2022-10-16T20:55:13;16.20;99.90
12335;DHT22;6233;51.560;9.986;2022-10-16T20:58:17;16.10;99.90
12335;DHT22;6233;51.560;9.986;2022-10-16T21:01:21;16.20;99.90
12335;DHT22;6233;51.560;9.986;2022-10-16T21:04:24;16.20;99.90
12335;DHT22;6233;51.560;9.986;2022-10-16T21:07:26;16.20;99.90